Time;durP1;ratioP1;P1;durP2;ratioP2;P2;SDS_P1;SDS_P2;PMS_P1;PMS_P2;Temp;Humidity;BMP_temperature;BMP_pressure;BME280_temperature;BME280_humidity;BME280_pressure;Samples;Min_cycle;Max_cycle;Signal;HPM_P1;HPM_P2
2022/06/06 00:02:04;;;;;;;4.80;3.70;;;21.70;64.20;;;;;;5016135;28;20030;-76
2022/06/06 00:04:29;;;;;;;4.53;4.13;;;21.70;64.50;;;;;;5016183;28;20088;-74
2022/06/06 00:06:58;;;;;;;4.63;4.22;;;21.70;65.70;;;;;;5011383;28;20858;-74
2022/06/06 00:09:24;;;;;;;5.25;4.68;;;21.70;65.30;;;;;;5010063;28;20038;-73
2022/06/06 00:11:50;;;;;;;7.45;4.55;;;21.70;64.80;;;;;;5012493;28;20031;-74
2022/06/06 00:14:17;;;;;;;4.90;4.40;;;21.80;64.90;;;;;;5016750;28;20025;-73
2022/06/06 00:16:44;;;;;;;4.90;4.40;;;21.70;65.60;;;;;;5012695;28;20720;-73
2022/06/06 00:19:12;;;;;;;5.50;5.00;;;21.70;68.50;;;;;;5016095;28;20165;-73
2022/06/06 00:21:40;;;;;;;6.57;5.97;;;21.50;72.50;;;;;;5013541;28;20048;-73
2022/06/06 00:24:06;;;;;;;6.15;5.65;;;21.20;75.40;;;;;;5011968;28;20428;-74
2022/06/06 00:26:34;;;;;;;6.50;5.80;;;21.00;76.60;;;;;;5012790;28;20390;-73
2022/06/06 00:29:01;;;;;;;6.07;5.45;;;20.80;77.30;;;;;;5006961;28;20018;-73
2022/06/06 00:36:57;;;;;;;6.68;5.95;;;20.30;80.60;;;;;;5013878;28;20083;-73
2022/06/06 00:39:23;;;;;;;7.32;6.63;;;20.10;81.70;;;;;;5012120;28;20041;-73
2022/06/06 00:41:54;;;;;;;7.05;6.45;;;20.00;83.50;;;;;;5015430;28;20025;-73
2022/06/06 00:44:28;;;;;;;8.18;6.50;;;19.90;85.40;;;;;;5011815;28;20034;-73
2022/06/06 00:47:00;;;;;;;6.72;6.03;;;19.70;84.70;;;;;;5010706;28;20034;-73
2022/06/06 00:49:34;;;;;;;7.40;6.70;;;19.60;85.80;;;;;;5016164;28;20087;-74
2022/06/06 00:52:01;;;;;;;10.73;7.05;;;19.50;86.60;;;;;;5015625;28;20029;-73
2022/06/06 00:54:29;;;;;;;7.78;6.97;;;19.50;88.10;;;;;;5014155;28;20099;-73
2022/06/06 00:57:02;;;;;;;7.38;6.70;;;19.50;89.20;;;;;;5012939;28;20121;-73
2022/06/06 00:59:32;;;;;;;8.07;6.90;;;19.40;89.40;;;;;;5012050;28;20083;-73
2022/06/06 01:01:58;;;;;;;6.97;6.38;;;19.40;88.90;;;;;;5011673;28;20120;-73
2022/06/06 01:04:26;;;;;;;7.05;6.45;;;19.40;88.90;;;;;;5013168;28;20037;-73
2022/06/06 01:06:52;;;;;;;6.97;6.38;;;19.40;89.10;;;;;;5012206;28;20071;-73
2022/06/06 01:09:20;;;;;;;7.97;6.72;;;19.40;89.30;;;;;;5015366;28;20033;-75
2022/06/06 01:12:11;;;;;;;8.07;7.20;;;19.40;90.20;;;;;;5017638;28;20040;-76
2022/06/06 01:14:41;;;;;;;9.52;7.97;;;19.20;91.10;;;;;;5008383;28;20040;-75
2022/06/06 01:17:18;;;;;;;9.23;7.78;;;19.00;92.50;;;;;;5013510;28;20029;-75
2022/06/06 01:20:12;;;;;;;11.98;8.70;;;18.80;93.70;;;;;;5007080;28;20044;-75
2022/06/06 01:22:56;;;;;;;9.98;8.77;;;18.70;94.50;;;;;;5010284;28;20040;-75
2022/06/06 01:25:58;;;;;;;9.45;8.55;;;18.60;95.10;;;;;;5013363;28;20490;-75
2022/06/06 01:28:52;;;;;;;9.93;8.90;;;18.60;95.70;;;;;;5016341;28;20121;-75
2022/06/06 01:31:24;;;;;;;9.27;8.38;;;18.50;96.20;;;;;;5007223;28;20841;-75
2022/06/06 01:33:55;;;;;;;9.60;8.60;;;18.50;96.40;;;;;;5009943;28;20552;-75
2022/06/06 01:36:23;;;;;;;10.30;9.30;;;18.50;96.60;;;;;;5014022;28;20033;-76
2022/06/06 01:38:49;;;;;;;11.43;10.23;;;18.50;96.80;;;;;;5011155;28;20033;-76
2022/06/06 01:41:41;;;;;;;10.50;9.38;;;18.60;96.80;;;;;;5017219;28;20616;-76
2022/06/06 01:44:33;;;;;;;11.57;9.95;;;18.60;96.80;;;;;;5013008;28;20041;-75
2022/06/06 01:47:02;;;;;;;10.68;9.57;;;18.60;96.60;;;;;;5015818;28;20039;-76
2022/06/06 01:49:32;;;;;;;10.73;9.63;;;18.70;96.60;;;;;;5006465;28;20034;-76
2022/06/06 01:52:00;;;;;;;11.70;10.50;;;18.70;96.70;;;;;;5011110;28;20052;-75
2022/06/06 01:54:26;;;;;;;12.45;11.15;;;18.80;96.70;;;;;;5013680;28;20044;-75
2022/06/06 01:56:53;;;;;;;11.93;10.57;;;18.80;96.70;;;;;;5017928;28;20037;-75
2022/06/06 01:59:19;;;;;;;12.63;11.38;;;18.80;96.70;;;;;;5013761;28;20038;-75
2022/06/06 02:01:45;;;;;;;15.05;11.13;;;18.80;96.80;;;;;;5014721;28;20775;-75
2022/06/06 02:04:11;;;;;;;12.45;11.20;;;18.80;96.80;;;;;;5013014;28;20042;-75
2022/06/06 02:06:41;;;;;;;13.10;10.98;;;18.70;97.00;;;;;;5012968;28;20040;-75
2022/06/06 02:09:08;;;;;;;14.98;11.13;;;18.60;97.40;;;;;;5011920;28;20044;-75
2022/06/06 02:11:34;;;;;;;14.82;11.95;;;18.60;97.70;;;;;;5006369;28;20604;-75
2022/06/06 02:14:00;;;;;;;15.10;12.48;;;18.50;98.00;;;;;;5009701;28;20038;-75
2022/06/06 02:16:25;;;;;;;13.50;12.15;;;18.50;98.00;;;;;;5010453;28;20083;-75
2022/06/06 02:18:51;;;;;;;13.63;12.23;;;18.40;98.10;;;;;;5014789;28;20038;-75
2022/06/06 02:21:17;;;;;;;13.68;12.27;;;18.40;98.30;;;;;;5019868;28;20033;-75
2022/06/06 02:23:43;;;;;;;13.55;12.23;;;18.40;98.60;;;;;;5017559;28;20044;-75
2022/06/06 02:26:10;;;;;;;17.00;13.70;;;18.40;98.70;;;;;;5014985;28;20120;-75
2022/06/06 02:28:37;;;;;;;14.63;13.05;;;18.30;98.90;;;;;;5013011;28;20045;-75
2022/06/06 02:31:04;;;;;;;14.35;12.85;;;18.30;99.00;;;;;;5012096;28;20037;-74
2022/06/06 02:33:30;;;;;;;14.90;13.05;;;18.30;99.00;;;;;;5012085;28;20048;-75
2022/06/06 02:35:59;;;;;;;14.70;13.02;;;18.40;99.00;;;;;;5012880;28;20025;-74
2022/06/06 02:38:25;;;;;;;17.08;13.75;;;18.40;98.90;;;;;;5004690;28;20038;-75
2022/06/06 02:40:51;;;;;;;16.23;13.82;;;18.40;99.00;;;;;;5014960;28;20056;-74
2022/06/06 02:43:18;;;;;;;14.57;13.15;;;18.50;99.20;;;;;;5015478;28;20053;-74
2022/06/06 02:45:46;;;;;;;16.17;14.48;;;18.50;98.90;;;;;;5011218;28;20452;-75
2022/06/06 02:48:13;;;;;;;15.23;13.73;;;18.50;98.90;;;;;;5013079;28;20068;-75
2022/06/06 02:50:39;;;;;;;15.73;14.13;;;18.60;98.90;;;;;;5014607;28;20025;-74
2022/06/06 02:53:05;;;;;;;17.42;15.07;;;18.60;98.80;;;;;;5017208;28;20721;-74
2022/06/06 02:55:32;;;;;;;18.40;16.50;;;18.60;98.90;;;;;;5014258;28;20139;-74
2022/06/06 02:58:00;;;;;;;17.92;15.00;;;18.60;98.90;;;;;;5013909;28;20055;-75
2022/06/06 03:00:29;;;;;;;21.58;18.13;;;18.70;99.10;;;;;;5003808;28;20041;-74
2022/06/06 03:02:55;;;;;;;18.17;16.30;;;18.60;99.20;;;;;;5011369;28;20034;-74
2022/06/06 03:05:24;;;;;;;21.77;16.90;;;18.70;99.30;;;;;;5016380;28;20038;-74
2022/06/06 03:08:17;;;;;;;21.98;17.75;;;18.70;99.70;;;;;;5016226;28;20144;-74
2022/06/06 03:10:57;;;;;;;21.65;16.80;;;18.80;99.50;;;;;;5012513;28;20061;-74
2022/06/06 03:13:34;;;;;;;19.95;17.20;;;18.80;99.70;;;;;;5018082;28;20033;-74
2022/06/06 03:22:51;;;;;;;15.90;13.80;;;18.80;99.90;;;;;;5015907;28;20041;-74
2022/06/06 03:25:44;;;;;;;14.63;12.68;;;18.80;99.90;;;;;;5013674;28;20064;-74
2022/06/06 03:28:45;;;;;;;16.25;12.80;;;18.80;99.90;;;;;;5016345;28;20802;-74
2022/06/06 03:31:26;;;;;;;16.38;13.43;;;18.80;99.90;;;;;;5014175;28;20034;-74
2022/06/06 03:34:23;;;;;;;14.23;12.73;;;18.80;99.90;;;;;;5008253;28;20899;-74
2022/06/06 03:37:25;;;;;;;15.02;12.23;;;18.80;99.90;;;;;;5015253;28;20129;-74
2022/06/06 03:39:59;;;;;;;13.35;11.13;;;18.80;99.90;;;;;;5015360;28;20492;-74
2022/06/06 03:42:50;;;;;;;13.05;11.07;;;18.80;99.90;;;;;;5011858;28;20123;-74
2022/06/06 03:45:29;;;;;;;13.20;11.15;;;18.80;99.90;;;;;;5013611;28;20512;-74
2022/06/06 03:48:07;;;;;;;12.20;11.00;;;18.80;99.90;;;;;;5015408;28;20120;-74
2022/06/06 03:50:55;;;;;;;12.65;11.30;;;18.80;99.90;;;;;;5013545;28;20079;-74
2022/06/06 03:53:50;;;;;;;12.07;10.85;;;18.90;99.90;;;;;;5013361;28;20029;-73
2022/06/06 03:56:40;;;;;;;11.82;10.63;;;18.90;99.90;;;;;;5016539;28;20037;-74
2022/06/06 03:59:07;;;;;;;11.80;10.63;;;18.90;99.90;;;;;;5010598;28;20041;-74
2022/06/06 04:01:37;;;;;;;10.75;9.75;;;18.90;99.90;;;;;;5011463;28;20035;-74
2022/06/06 04:04:04;;;;;;;13.48;10.57;;;18.90;99.90;;;;;;5008998;28;20039;-74
2022/06/06 04:06:32;;;;;;;11.85;10.43;;;18.90;99.90;;;;;;5013676;28;20025;-74
2022/06/06 04:08:59;;;;;;;12.55;10.32;;;18.90;99.90;;;;;;5008478;28;20030;-74
2022/06/06 04:11:27;;;;;;;13.85;10.43;;;18.90;99.90;;;;;;5012077;28;20837;-74
2022/06/06 04:13:59;;;;;;;12.23;11.02;;;18.90;99.90;;;;;;5016760;28;20033;-74
2022/06/06 04:16:55;;;;;;;11.68;10.48;;;18.90;99.90;;;;;;5008839;28;21036;-74
2022/06/06 04:19:41;;;;;;;11.63;10.35;;;18.90;99.90;;;;;;5012930;28;20042;-74
2022/06/06 04:22:17;;;;;;;13.00;11.02;;;19.00;99.90;;;;;;5015840;28;20489;-74
2022/06/06 04:24:59;;;;;;;12.32;10.90;;;19.00;99.90;;;;;;5008671;28;20073;-74
2022/06/06 04:27:49;;;;;;;11.10;9.98;;;19.00;99.90;;;;;;5012460;28;20042;-74
2022/06/06 04:30:31;;;;;;;18.75;11.50;;;19.10;99.90;;;;;;5029104;28;20079;-74
2022/06/06 04:33:17;;;;;;;12.73;11.43;;;19.20;99.90;;;;;;5009635;28;20029;-74
2022/06/06 04:36:14;;;;;;;13.18;10.90;;;19.30;99.90;;;;;;5013129;28;20025;-74
2022/06/06 04:39:04;;;;;;;11.95;10.75;;;19.30;99.90;;;;;;5013222;28;20908;-74
2022/06/06 04:41:45;;;;;;;11.82;10.70;;;19.40;99.80;;;;;;5011638;28;20034;-74
2022/06/06 04:44:13;;;;;;;12.15;10.93;;;19.40;99.70;;;;;;5012336;28;20026;-74
2022/06/06 04:46:58;;;;;;;11.45;10.25;;;19.50;99.60;;;;;;5014293;28;20029;-74
2022/06/06 04:49:27;;;;;;;11.35;10.23;;;19.50;99.70;;;;;;5011201;28;20026;-74
2022/06/06 04:51:54;;;;;;;12.25;11.05;;;19.50;99.50;;;;;;5007619;28;20030;-74
2022/06/06 04:54:23;;;;;;;11.20;10.20;;;19.60;99.50;;;;;;5014277;28;20033;-74
2022/06/06 04:56:51;;;;;;;14.30;10.70;;;19.70;99.50;;;;;;5005978;28;20034;-74
2022/06/06 04:59:20;;;;;;;11.68;10.57;;;19.80;99.20;;;;;;5009564;28;20083;-74
2022/06/06 05:01:46;;;;;;;13.25;11.68;;;19.90;99.00;;;;;;5016892;28;20088;-74
2022/06/06 05:04:12;;;;;;;11.38;10.27;;;20.00;98.80;;;;;;5004990;28;20034;-74
2022/06/06 05:06:53;;;;;;;12.50;11.23;;;20.20;98.40;;;;;;5013282;28;20030;-74
2022/06/06 05:09:40;;;;;;;12.15;10.85;;;20.40;98.10;;;;;;5013615;28;20044;-74
2022/06/06 05:12:24;;;;;;;11.73;10.63;;;20.60;97.70;;;;;;5018206;28;20556;-74
2022/06/06 05:15:08;;;;;;;13.77;12.27;;;20.70;97.20;;;;;;5007562;28;20041;-74
2022/06/06 05:17:55;;;;;;;12.95;11.65;;;20.90;96.80;;;;;;5008642;28;20034;-74
2022/06/06 05:20:29;;;;;;;11.05;9.93;;;21.10;96.50;;;;;;5013660;28;20041;-74
2022/06/06 05:23:31;;;;;;;11.10;9.55;;;21.30;95.80;;;;;;5014426;28;20033;-74
2022/06/06 05:26:09;;;;;;;9.93;9.02;;;21.50;95.00;;;;;;5011679;28;20114;-74
2022/06/06 05:29:03;;;;;;;9.43;8.52;;;21.50;95.00;;;;;;5013942;28;20040;-74
2022/06/06 05:31:47;;;;;;;9.77;8.65;;;21.40;94.00;;;;;;5009994;28;20672;-74
2022/06/06 05:34:18;;;;;;;7.72;7.03;;;21.30;94.40;;;;;;5004345;28;20033;-74
2022/06/06 05:36:59;;;;;;;10.65;7.40;;;21.30;94.30;;;;;;5012673;28;20053;-74
2022/06/06 05:39:40;;;;;;;7.25;6.55;;;21.30;94.50;;;;;;5016119;28;20408;-74
2022/06/06 05:42:24;;;;;;;6.88;6.20;;;21.30;94.10;;;;;;5011522;28;20037;-74
2022/06/06 05:45:13;;;;;;;6.85;6.18;;;21.30;94.10;;;;;;5015647;28;20965;-74
2022/06/06 05:48:03;;;;;;;6.82;6.13;;;21.40;94.20;;;;;;5008276;28;20426;-73
2022/06/06 05:50:55;;;;;;;9.60;7.13;;;21.40;94.00;;;;;;5012726;28;20568;-73
2022/06/06 05:54:00;;;;;;;6.55;5.93;;;21.50;92.80;;;;;;5014686;28;20071;-74
2022/06/06 05:56:57;;;;;;;6.18;5.57;;;21.30;93.30;;;;;;5022364;28;20051;-74
2022/06/06 05:59:42;;;;;;;6.63;5.68;;;21.00;93.30;;;;;;5013100;28;20029;-76
2022/06/06 06:02:24;;;;;;;7.13;6.20;;;20.70;93.80;;;;;;5003048;28;20052;-76
2022/06/06 06:05:05;;;;;;;6.93;6.18;;;20.40;94.30;;;;;;5008609;28;20401;-76
2022/06/06 06:07:51;;;;;;;7.22;6.53;;;20.20;94.60;;;;;;5013644;28;20034;-76
2022/06/06 06:10:35;;;;;;;6.70;6.03;;;20.00;95.10;;;;;;5014947;28;20044;-76
2022/06/06 06:13:07;;;;;;;6.35;5.75;;;20.20;95.30;;;;;;5020669;28;20153;-77
2022/06/06 06:15:37;;;;;;;10.35;7.20;;;20.50;95.10;;;;;;5020062;28;20152;-67
2022/06/06 06:18:09;;;;;;;7.30;6.60;;;20.80;94.80;;;;;;5013616;28;20122;-77
2022/06/06 06:20:40;;;;;;;8.50;7.70;;;20.90;94.70;;;;;;5022419;28;20034;-77
2022/06/06 06:23:08;;;;;;;8.90;7.60;;;21.00;94.60;;;;;;5016488;28;20044;-77
2022/06/06 06:25:37;;;;;;;7.07;6.38;;;21.10;93.80;;;;;;5018256;28;20366;-76
2022/06/06 06:28:10;;;;;;;7.32;6.50;;;21.10;93.70;;;;;;5015296;28;20067;-76
2022/06/06 06:31:09;;;;;;;8.85;6.50;;;21.20;92.80;;;;;;5018527;28;20116;-69
2022/06/06 06:33:43;;;;;;;6.78;6.07;;;21.30;92.30;;;;;;5013857;28;20025;-76
2022/06/06 06:36:09;;;;;;;9.57;6.65;;;21.30;92.00;;;;;;5017211;28;20041;-74
2022/06/06 06:38:47;;;;;;;7.30;6.45;;;21.30;91.50;;;;;;5016858;28;20045;-75
2022/06/06 06:41:44;;;;;;;7.22;6.53;;;21.30;91.20;;;;;;5017281;28;20035;-74
2022/06/06 06:44:36;;;;;;;7.53;6.25;;;21.30;90.70;;;;;;4985366;28;20227;-74
2022/06/06 06:47:17;;;;;;;6.47;5.88;;;21.30;91.00;;;;;;5011165;28;20057;-74
2022/06/06 06:50:01;;;;;;;9.20;6.63;;;21.50;91.40;;;;;;5013618;28;20365;-74
2022/06/06 06:53:05;;;;;;;7.82;6.60;;;21.70;91.20;;;;;;5014075;28;20025;-72
2022/06/06 06:55:41;;;;;;;6.20;5.60;;;21.90;90.70;;;;;;5014754;28;20032;-76
2022/06/06 06:58:37;;;;;;;6.53;5.68;;;22.00;90.40;;;;;;5015741;28;20046;-75
2022/06/06 07:01:07;;;;;;;7.70;7.00;;;22.00;90.00;;;;;;5015998;28;20037;-74
2022/06/06 07:10:24;;;;;;;6.30;5.32;;;22.20;88.60;;;;;;5011313;28;20029;-74
2022/06/06 07:12:59;;;;;;;6.63;4.75;;;22.30;85.60;;;;;;5013881;28;20139;-74
2022/06/06 07:15:44;;;;;;;6.82;5.32;;;22.30;84.70;;;;;;5016400;28;20037;-74
2022/06/06 07:18:13;;;;;;;4.65;4.10;;;22.40;86.60;;;;;;5011699;28;20029;-74
2022/06/06 07:20:43;;;;;;;6.07;4.15;;;22.60;86.50;;;;;;5016514;28;20192;-74
2022/06/06 07:23:11;;;;;;;6.43;3.88;;;22.80;81.50;;;;;;5016667;28;20038;-74
2022/06/06 07:25:43;;;;;;;4.95;3.80;;;23.00;80.70;;;;;;5008435;28;20030;-70
2022/06/06 07:28:21;;;;;;;4.10;3.70;;;23.20;79.60;;;;;;5013358;28;20034;-72
2022/06/06 07:30:47;;;;;;;5.40;4.10;;;23.40;77.20;;;;;;5012358;28;20025;-78
2022/06/06 07:33:38;;;;;;;4.55;3.78;;;23.60;74.50;;;;;;5009276;28;20042;-75
2022/06/06 07:36:16;;;;;;;4.82;3.50;;;23.60;76.20;;;;;;5011718;28;20038;-75
2022/06/06 07:39:15;;;;;;;4.60;3.60;;;23.70;74.30;;;;;;5012318;28;20026;-75
2022/06/06 07:41:46;;;;;;;4.07;3.67;;;23.80;73.10;;;;;;5013264;28;20034;-74
2022/06/06 07:44:34;;;;;;;4.13;3.72;;;23.90;69.40;;;;;;5015953;28;20044;-75
2022/06/06 07:47:19;;;;;;;5.53;3.78;;;24.10;70.60;;;;;;5008267;28;20100;-75
2022/06/06 07:49:56;;;;;;;4.77;3.57;;;24.50;70.50;;;;;;5012294;28;20088;-74
2022/06/06 07:52:36;;;;;;;4.85;4.22;;;24.90;66.40;;;;;;5016231;28;20029;-74
2022/06/06 07:55:18;;;;;;;3.75;3.33;;;25.00;65.50;;;;;;5011609;28;20034;-75
2022/06/06 07:57:47;;;;;;;5.68;3.45;;;24.90;67.20;;;;;;5011185;28;20037;-73
2022/06/06 08:00:28;;;;;;;4.07;3.67;;;25.00;67.20;;;;;;5014769;28;20033;-72
2022/06/06 08:02:59;;;;;;;4.30;3.40;;;25.30;68.00;;;;;;5013441;28;20115;-72
2022/06/06 08:05:31;;;;;;;3.55;3.17;;;25.50;64.20;;;;;;5012411;28;20053;-72
2022/06/06 08:08:11;;;;;;;3.40;2.92;;;25.70;63.40;;;;;;5012649;28;20493;-72
2022/06/06 08:10:45;;;;;;;3.42;3.13;;;25.90;62.60;;;;;;5018672;28;20410;-72
2022/06/06 08:13:30;;;;;;;3.63;3.20;;;25.80;63.80;;;;;;5009948;28;20241;-71
2022/06/06 08:16:11;;;;;;;4.22;3.40;;;25.70;61.20;;;;;;5011224;28;20112;-72
2022/06/06 08:19:14;;;;;;;4.85;3.22;;;25.50;63.10;;;;;;5015645;28;20022;-72
2022/06/06 08:21:46;;;;;;;3.55;3.25;;;25.40;63.20;;;;;;5015923;28;20029;-75
2022/06/06 08:24:29;;;;;;;4.00;3.40;;;25.20;64.00;;;;;;5014824;28;20040;-73
2022/06/06 08:26:57;;;;;;;3.10;2.90;;;25.20;65.20;;;;;;5014598;28;20129;-72
2022/06/06 08:29:24;;;;;;;3.08;2.78;;;25.50;65.50;;;;;;5012960;28;20063;-72
2022/06/06 08:31:50;;;;;;;3.25;2.80;;;25.70;65.00;;;;;;5013964;28;20029;-73
2022/06/06 08:34:16;;;;;;;3.03;2.60;;;25.80;62.70;;;;;;5011961;28;20873;-72
2022/06/06 08:37:05;;;;;;;3.90;2.92;;;25.90;63.80;;;;;;5013640;28;20076;-73
2022/06/06 08:39:40;;;;;;;4.85;3.47;;;25.90;63.80;;;;;;5007481;28;20052;-72
2022/06/06 08:42:12;;;;;;;3.22;2.92;;;25.80;62.10;;;;;;5014154;28;20025;-72
2022/06/06 08:45:16;;;;;;;3.53;2.97;;;25.80;63.40;;;;;;5008385;28;20018;-72
2022/06/06 08:47:45;;;;;;;3.40;3.10;;;26.00;65.40;;;;;;4999222;28;20079;-72
2022/06/06 08:50:45;;;;;;;4.13;3.10;;;26.40;59.50;;;;;;5009662;28;20061;-72
2022/06/06 08:53:20;;;;;;;3.63;2.78;;;26.50;58.50;;;;;;5013991;28;20025;-73
2022/06/06 08:56:01;;;;;;;3.40;2.80;;;26.50;60.50;;;;;;5012509;28;20025;-73
2022/06/06 08:58:33;;;;;;;2.95;2.40;;;26.50;59.40;;;;;;5012420;28;20040;-73
2022/06/06 09:01:24;;;;;;;4.55;2.80;;;26.50;59.20;;;;;;5017852;28;20130;-73
2022/06/06 09:03:56;;;;;;;3.13;2.83;;;26.30;58.60;;;;;;5010409;28;20431;-73
2022/06/06 09:06:31;;;;;;;2.78;2.40;;;26.30;58.30;;;;;;5016845;28;20033;-73
2022/06/06 09:09:25;;;;;;;5.72;3.42;;;26.50;58.40;;;;;;5011766;28;20029;-73
2022/06/06 09:12:28;;;;;;;3.88;3.00;;;26.80;58.00;;;;;;5009606;28;20462;-72
2022/06/06 09:15:31;;;;;;;3.50;2.53;;;26.80;57.50;;;;;;5016195;28;20033;-73
2022/06/06 09:18:22;;;;;;;3.20;2.88;;;26.80;57.90;;;;;;5014700;28;20029;-73
2022/06/06 09:20:53;;;;;;;3.55;2.50;;;27.10;57.70;;;;;;5010908;28;20111;-73
2022/06/06 09:23:34;;;;;;;3.03;2.72;;;27.50;56.60;;;;;;5016946;28;20033;-72
2022/06/06 09:26:21;;;;;;;3.55;2.70;;;27.70;56.20;;;;;;5013507;28;20061;-73
2022/06/06 09:29:15;;;;;;;3.67;2.58;;;27.90;55.70;;;;;;5011000;28;20038;-73
2022/06/06 09:31:41;;;;;;;4.63;2.88;;;27.80;54.10;;;;;;5017496;28;20029;-72
2022/06/06 09:34:10;;;;;;;2.70;2.50;;;27.40;55.40;;;;;;5014166;28;20021;-73
2022/06/06 09:36:57;;;;;;;4.28;2.83;;;26.90;57.50;;;;;;5015219;28;20033;-73
2022/06/06 09:39:40;;;;;;;4.93;2.67;;;26.70;58.10;;;;;;5017578;28;20140;-72
2022/06/06 09:42:15;;;;;;;2.83;2.55;;;26.80;58.30;;;;;;5018296;28;20037;-72
2022/06/06 09:44:44;;;;;;;5.47;2.80;;;27.00;57.80;;;;;;5020617;28;20029;-73
2022/06/06 09:47:15;;;;;;;4.40;3.45;;;27.00;58.50;;;;;;5018677;28;20053;-72
2022/06/06 09:50:22;;;;;;;3.40;3.08;;;27.00;57.40;;;;;;5014007;28;20034;-73
2022/06/06 09:53:13;;;;;;;3.13;2.58;;;27.40;56.50;;;;;;5016641;28;20076;-73
2022/06/06 09:59:10;;;;;;;3.80;2.55;;;27.20;55.40;;;;;;5001586;28;20037;-71
2022/06/06 10:02:06;;;;;;;4.97;2.90;;;26.70;57.60;;;;;;5016276;28;21001;-72
2022/06/06 10:04:50;;;;;;;2.63;2.42;;;26.40;59.80;;;;;;5011642;28;20034;-72
2022/06/06 10:07:44;;;;;;;4.40;2.80;;;26.50;60.70;;;;;;5015133;28;20255;-72
2022/06/06 10:10:41;;;;;;;3.70;2.40;;;26.90;59.10;;;;;;5015523;28;20045;-72
2022/06/06 10:13:26;;;;;;;3.38;3.08;;;27.30;58.30;;;;;;5014501;28;20469;-72
2022/06/06 10:16:17;;;;;;;3.17;2.78;;;27.60;55.50;;;;;;5016618;28;20153;-72
2022/06/06 10:19:10;;;;;;;4.32;2.90;;;27.50;56.20;;;;;;5015725;28;20099;-74
2022/06/06 10:22:11;;;;;;;5.25;2.67;;;27.30;56.20;;;;;;5016773;28;20036;-73
2022/06/06 10:25:02;;;;;;;4.18;2.60;;;27.40;56.00;;;;;;5009713;28;20040;-73
2022/06/06 10:27:43;;;;;;;5.47;2.65;;;27.40;55.50;;;;;;5016586;28;20034;-71
2022/06/06 10:30:22;;;;;;;2.78;2.55;;;27.30;55.60;;;;;;5012613;28;20033;-73
2022/06/06 10:33:09;;;;;;;3.28;2.58;;;27.40;55.60;;;;;;5015545;28;20037;-73
2022/06/06 10:36:12;;;;;;;3.22;2.70;;;27.60;55.50;;;;;;5014972;28;20091;-73
2022/06/06 10:39:03;;;;;;;2.92;2.35;;;27.50;54.10;;;;;;5013848;28;20096;-73
2022/06/06 10:41:53;;;;;;;3.03;2.22;;;27.30;56.20;;;;;;5015735;28;20036;-72
2022/06/06 10:44:46;;;;;;;4.53;2.42;;;27.20;53.40;;;;;;5012172;28;20051;-73
2022/06/06 10:47:12;;;;;;;4.25;2.47;;;27.20;53.40;;;;;;5014508;28;20034;-73
2022/06/06 10:49:59;;;;;;;4.00;2.65;;;27.30;55.40;;;;;;5011306;28;20034;-73
2022/06/06 10:52:40;;;;;;;3.95;2.83;;;29.00;52.00;;;;;;5009445;28;20052;-73
2022/06/06 10:55:32;;;;;;;4.18;2.40;;;30.00;49.50;;;;;;5016537;28;20045;-73
2022/06/06 10:58:21;;;;;;;3.03;2.65;;;29.50;49.10;;;;;;5015372;28;20032;-73
2022/06/06 11:01:11;;;;;;;3.35;2.30;;;29.00;50.30;;;;;;5018108;28;20029;-73
2022/06/06 11:03:55;;;;;;;3.28;1.85;;;28.70;50.90;;;;;;5012420;28;20045;-73
2022/06/06 11:06:45;;;;;;;2.10;1.90;;;28.80;50.70;;;;;;5009868;28;20034;-73
2022/06/06 11:09:32;;;;;;;4.00;2.22;;;28.70;50.30;;;;;;5007561;28;20061;-73
2022/06/06 11:12:20;;;;;;;2.60;2.10;;;28.70;50.50;;;;;;5011880;28;20072;-73
2022/06/06 11:14:45;;;;;;;5.10;2.13;;;28.50;49.50;;;;;;5012478;28;20552;-72
2022/06/06 11:17:44;;;;;;;2.58;2.10;;;28.30;51.30;;;;;;5013572;28;20030;-73
2022/06/06 11:20:28;;;;;;;3.88;2.00;;;27.90;51.50;;;;;;5017158;28;20048;-71
2022/06/06 11:22:54;;;;;;;5.18;2.10;;;27.80;52.40;;;;;;5008562;28;20072;-71
2022/06/06 11:25:22;;;;;;;4.95;2.30;;;28.00;50.90;;;;;;5014093;28;20123;-70
2022/06/06 11:27:50;;;;;;;2.58;2.15;;;28.10;51.50;;;;;;5014808;28;20068;-73
2022/06/06 11:30:29;;;;;;;3.08;2.08;;;28.30;50.60;;;;;;5011150;28;20030;-73
2022/06/06 11:33:23;;;;;;;3.17;2.13;;;28.40;51.30;;;;;;5014435;28;20048;-73
2022/06/06 11:36:14;;;;;;;1.80;1.70;;;28.60;49.00;;;;;;5011520;28;20437;-73
2022/06/06 11:39:10;;;;;;;3.15;2.30;;;28.60;49.80;;;;;;5008809;28;20033;-72
2022/06/06 11:42:15;;;;;;;2.35;1.80;;;28.60;49.60;;;;;;5013804;28;20033;-72
2022/06/06 11:45:00;;;;;;;2.50;2.10;;;28.40;51.20;;;;;;5011899;28;20041;-72
2022/06/06 11:47:47;;;;;;;2.42;2.00;;;28.20;51.20;;;;;;5013590;28;20025;-73
2022/06/06 11:50:46;;;;;;;2.00;1.75;;;28.00;51.50;;;;;;5011609;28;20079;-72
2022/06/06 11:53:46;;;;;;;2.20;2.00;;;27.90;51.80;;;;;;5011982;28;20521;-75
2022/06/06 11:56:23;;;;;;;3.20;2.15;;;28.10;52.30;;;;;;5010921;28;20116;-72
2022/06/06 11:59:27;;;;;;;3.33;2.13;;;28.40;51.90;;;;;;5012888;28;20037;-72
2022/06/06 12:02:15;;;;;;;3.58;1.95;;;28.90;50.70;;;;;;5011977;28;20037;-72
2022/06/06 12:05:09;;;;;;;2.25;2.05;;;29.30;50.10;;;;;;5011224;28;20034;-71
2022/06/06 12:08:19;;;;;;;2.55;2.10;;;29.20;50.00;;;;;;4990193;28;20049;-74
2022/06/06 12:11:03;;;;;;;3.80;2.30;;;29.10;50.70;;;;;;5012605;28;20132;-72
2022/06/06 12:13:35;;;;;;;2.72;2.22;;;29.30;50.60;;;;;;5014139;28;20041;-71
2022/06/06 12:16:29;;;;;;;2.03;1.85;;;29.50;49.10;;;;;;5013595;28;20045;-73
2022/06/06 12:19:17;;;;;;;2.40;2.20;;;29.40;49.80;;;;;;5010808;28;20041;-72
2022/06/06 12:22:25;;;;;;;3.78;2.30;;;29.30;50.60;;;;;;5011947;28;20080;-73
2022/06/06 12:25:06;;;;;;;3.42;2.30;;;29.20;50.00;;;;;;5010824;28;20044;-68
2022/06/06 12:28:01;;;;;;;4.40;2.35;;;29.00;49.90;;;;;;5010270;28;20033;-74
2022/06/06 12:30:59;;;;;;;2.50;2.30;;;28.80;50.80;;;;;;5013947;28;20464;-74
2022/06/06 12:33:37;;;;;;;4.18;2.15;;;28.70;51.10;;;;;;5012347;28;20850;-75
2022/06/06 12:36:15;;;;;;;4.90;2.60;;;28.70;51.80;;;;;;5016032;28;20037;-75
2022/06/06 12:39:01;;;;;;;4.10;2.50;;;28.60;49.80;;;;;;5011305;28;20022;-74
2022/06/06 12:41:37;;;;;;;3.65;2.50;;;28.40;50.60;;;;;;5009020;28;20029;-75
2022/06/06 12:44:10;;;;;;;;;;;28.20;51.10;;;;;;5012634;28;20029;-75
2022/06/06 12:47:04;;;;;;;3.15;2.20;;;28.20;51.60;;;;;;5012812;28;19924;-75
2022/06/06 12:49:40;;;;;;;2.70;2.45;;;28.40;50.00;;;;;;5010943;28;20037;-75
2022/06/06 12:52:12;;;;;;;3.40;2.95;;;28.70;49.50;;;;;;5007386;28;20075;-74
2022/06/06 12:57:58;;;;;;;2.90;2.60;;;29.20;48.70;;;;;;5007621;28;20065;-75
2022/06/06 13:03:44;;;;;;;2.92;2.08;;;28.50;49.90;;;;;;5009179;28;20076;-75
2022/06/06 13:06:33;;;;;;;4.95;2.40;;;28.20;50.60;;;;;;5009087;28;20037;-75
2022/06/06 13:09:24;;;;;;;2.78;2.05;;;28.00;50.10;;;;;;5012178;28;20107;-75
2022/06/06 13:12:10;;;;;;;2.92;2.60;;;27.80;49.50;;;;;;5004699;28;20022;-75
2022/06/06 13:15:02;;;;;;;3.55;2.00;;;27.50;48.20;;;;;;5008872;28;20652;-75
2022/06/06 13:18:03;;;;;;;4.10;2.38;;;27.20;50.70;;;;;;5010385;28;20042;-75
2022/06/06 13:20:51;;;;;;;2.90;2.53;;;27.00;49.80;;;;;;4974687;28;20045;-75
2022/06/06 13:23:40;;;;;;;2.35;1.85;;;26.90;49.50;;;;;;5013656;28;20818;-75
2022/06/06 13:26:46;;;;;;;2.20;2.00;;;26.70;48.60;;;;;;5030242;28;20038;-75
2022/06/06 13:29:25;;;;;;;3.00;2.13;;;26.60;49.50;;;;;;5012602;28;20120;-75
2022/06/06 13:32:08;;;;;;;2.40;2.17;;;26.50;49.80;;;;;;5015834;28;20032;-75
2022/06/06 13:34:42;;;;;;;3.22;2.05;;;26.40;50.20;;;;;;5013406;28;20056;-75
2022/06/06 13:37:11;;;;;;;2.10;1.90;;;26.30;53.30;;;;;;5011746;28;20060;-75
2022/06/06 13:39:57;;;;;;;3.95;2.28;;;26.20;54.40;;;;;;5011865;28;20029;-75
2022/06/06 13:42:25;;;;;;;2.97;2.05;;;26.20;53.00;;;;;;5017421;28;20037;-75
2022/06/06 13:45:10;;;;;;;3.35;2.30;;;26.20;53.70;;;;;;5013313;28;20036;-75
2022/06/06 13:48:03;;;;;;;2.65;2.33;;;26.40;56.30;;;;;;5009619;28;20038;-75
2022/06/06 13:50:58;;;;;;;3.67;2.35;;;26.50;57.30;;;;;;5012034;28;20480;-75
2022/06/06 13:53:51;;;;;;;2.70;2.50;;;26.60;57.10;;;;;;5010183;28;20025;-75
2022/06/06 13:56:32;;;;;;;2.78;2.35;;;26.60;56.80;;;;;;5010931;28;20043;-75
2022/06/06 13:59:36;;;;;;;2.80;2.50;;;26.40;56.80;;;;;;5014339;28;20044;-75
2022/06/06 14:02:23;;;;;;;3.28;2.47;;;26.20;56.20;;;;;;5013576;28;20025;-75
2022/06/06 14:05:03;;;;;;;4.47;2.88;;;26.00;57.10;;;;;;5009411;28;20045;-75
2022/06/06 14:07:40;;;;;;;3.60;2.67;;;26.10;58.00;;;;;;5009020;28;20025;-75
2022/06/06 14:10:09;;;;;;;3.47;2.50;;;26.30;59.50;;;;;;5010972;28;20041;-75
2022/06/06 14:13:11;;;;;;;5.55;2.63;;;26.70;57.90;;;;;;5016080;28;20068;-75
2022/06/06 14:15:46;;;;;;;4.18;2.38;;;27.50;54.20;;;;;;5014176;28;20029;-75